sensor_id;sensor_type;location;lat;lon;timestamp;pressure;altitude;pressure_sealevel;temperature;humidity
6032;BME280;3044;43.232;27.972;2023-05-12T00:01:35;43809.69;;;-143.84;91.51
6032;BME280;3044;43.232;27.972;2023-05-12T00:04:03;43826.81;;;-143.84;91.63
6032;BME280;3044;43.232;27.972;2023-05-12T00:06:30;43832.53;;;-143.84;91.67
6032;BME280;3044;43.232;27.972;2023-05-12T00:08:58;43788.75;;;-143.84;91.33
6032;BME280;3044;43.232;27.972;2023-05-12T00:11:25;43788.75;;;-143.84;91.61
6032;BME280;3044;43.232;27.972;2023-05-12T00:13:53;43819.19;;;-143.84;91.62
6032;BME280;3044;43.232;27.972;2023-05-12T00:16:20;43813.50;;;-143.84;91.32
6032;BME280;3044;43.232;27.972;2023-05-12T00:18:48;43830.63;;;-143.84;91.56
6032;BME280;3044;43.232;27.972;2023-05-12T00:21:16;43815.41;;;-143.84;91.58
6032;BME280;3044;43.232;27.972;2023-05-12T00:23:43;43815.41;;;-143.84;91.62
6032;BME280;3044;43.232;27.972;2023-05-12T00:26:12;43836.34;;;-143.84;91.95
6032;BME280;3044;43.232;27.972;2023-05-12T00:28:39;43834.44;;;-143.84;91.97
6032;BME280;3044;43.232;27.972;2023-05-12T00:31:06;43826.81;;;-143.84;92.17
6032;BME280;3044;43.232;27.972;2023-05-12T00:33:33;43824.91;;;-143.84;92.19
6032;BME280;3044;43.232;27.972;2023-05-12T00:36:00;43834.44;;;-143.84;92.08
6032;BME280;3044;43.232;27.972;2023-05-12T00:38:28;43832.53;;;-143.84;92.24
6032;BME280;3044;43.232;27.972;2023-05-12T00:40:55;43862.97;;;-143.84;92.31
6032;BME280;3044;43.232;27.972;2023-05-12T00:43:24;43849.66;;;-143.84;92.43
6032;BME280;3044;43.232;27.972;2023-05-12T00:45:51;43849.66;;;-143.84;92.57
6032;BME280;3044;43.232;27.972;2023-05-12T00:48:18;43849.66;;;-143.84;92.46
6032;BME280;3044;43.232;27.972;2023-05-12T00:50:46;43853.47;;;-143.84;92.56
6032;BME280;3044;43.232;27.972;2023-05-12T00:53:13;43859.19;;;-143.84;92.66
6032;BME280;3044;43.232;27.972;2023-05-12T00:55:40;43864.88;;;-143.84;92.63
6032;BME280;3044;43.232;27.972;2023-05-12T00:58:08;43876.31;;;-143.84;92.82
6032;BME280;3044;43.232;27.972;2023-05-12T01:00:36;43889.63;;;-143.84;92.84
6032;BME280;3044;43.232;27.972;2023-05-12T01:03:03;43857.28;;;-143.84;92.85
6032;BME280;3044;43.232;27.972;2023-05-12T01:05:33;43868.69;;;-143.84;93.11
6032;BME280;3044;43.232;27.972;2023-05-12T01:08:02;43861.06;;;-143.84;93.15
6032;BME280;3044;43.232;27.972;2023-05-12T01:10:29;43882.00;;;-143.84;93.21
6032;BME280;3044;43.232;27.972;2023-05-12T01:12:56;43861.06;;;-143.84;93.17
6032;BME280;3044;43.232;27.972;2023-05-12T01:15:24;43874.41;;;-143.84;93.18
6032;BME280;3044;43.232;27.972;2023-05-12T01:17:56;43870.59;;;-143.84;93.23
6032;BME280;3044;43.232;27.972;2023-05-12T01:20:27;43883.91;;;-143.84;93.39
6032;BME280;3044;43.232;27.972;2023-05-12T01:22:56;43880.13;;;-143.84;93.57
6032;BME280;3044;43.232;27.972;2023-05-12T01:25:26;43895.34;;;-143.84;93.63
6032;BME280;3044;43.232;27.972;2023-05-12T01:27:56;43895.34;;;-143.84;93.88
6032;BME280;3044;43.232;27.972;2023-05-12T01:30:24;43901.06;;;-143.84;94.11
6032;BME280;3044;43.232;27.972;2023-05-12T01:32:52;43897.25;;;-143.84;94.00
6032;BME280;3044;43.232;27.972;2023-05-12T01:35:19;43895.34;;;-143.84;94.29
6032;BME280;3044;43.232;27.972;2023-05-12T01:37:46;43895.34;;;-143.84;94.37
6032;BME280;3044;43.232;27.972;2023-05-12T01:40:13;43920.09;;;-143.84;94.48
6032;BME280;3044;43.232;27.972;2023-05-12T01:42:41;43929.59;;;-143.84;94.54
6032;BME280;3044;43.232;27.972;2023-05-12T01:45:10;43918.19;;;-143.84;94.55
6032;BME280;3044;43.232;27.972;2023-05-12T01:47:37;43929.59;;;-143.84;94.79
6032;BME280;3044;43.232;27.972;2023-05-12T01:50:05;43942.94;;;-143.84;95.07
6032;BME280;3044;43.232;27.972;2023-05-12T01:52:32;43933.41;;;-143.84;94.79
6032;BME280;3044;43.232;27.972;2023-05-12T01:54:59;43950.53;;;-143.84;95.05
6032;BME280;3044;43.232;27.972;2023-05-12T01:57:26;43950.53;;;-143.84;94.96
6032;BME280;3044;43.232;27.972;2023-05-12T01:59:53;43923.91;;;-143.84;95.06
6032;BME280;3044;43.232;27.972;2023-05-12T02:02:22;43942.94;;;-143.84;95.22
6032;BME280;3044;43.232;27.972;2023-05-12T02:04:49;43941.03;;;-143.84;95.16
6032;BME280;3044;43.232;27.972;2023-05-12T02:07:16;43941.03;;;-143.84;95.17
6032;BME280;3044;43.232;27.972;2023-05-12T02:09:43;43939.13;;;-143.84;95.22
6032;BME280;3044;43.232;27.972;2023-05-12T02:12:10;43950.53;;;-143.84;95.31
6032;BME280;3044;43.232;27.972;2023-05-12T02:14:38;43950.53;;;-143.84;95.25
6032;BME280;3044;43.232;27.972;2023-05-12T02:17:05;43958.16;;;-143.84;95.39
6032;BME280;3044;43.232;27.972;2023-05-12T02:19:33;43956.25;;;-143.84;95.53
6032;BME280;3044;43.232;27.972;2023-05-12T02:22:00;43956.25;;;-143.84;95.31
6032;BME280;3044;43.232;27.972;2023-05-12T02:24:27;43973.38;;;-143.84;95.59
6032;BME280;3044;43.232;27.972;2023-05-12T02:26:54;43960.06;;;-143.84;95.63
6032;BME280;3044;43.232;27.972;2023-05-12T02:29:22;43961.97;;;-143.84;95.56
6032;BME280;3044;43.232;27.972;2023-05-12T02:31:49;43971.47;;;-143.84;95.65
6032;BME280;3044;43.232;27.972;2023-05-12T02:34:16;43965.78;;;-143.84;95.59
6032;BME280;3044;43.232;27.972;2023-05-12T02:36:44;43965.78;;;-143.84;95.61
6032;BME280;3044;43.232;27.972;2023-05-12T02:39:11;43954.34;;;-143.84;95.65
6032;BME280;3044;43.232;27.972;2023-05-12T02:41:38;43971.47;;;-143.84;95.84
6032;BME280;3044;43.232;27.972;2023-05-12T02:44:05;43988.63;;;-143.84;95.79
6032;BME280;3044;43.232;27.972;2023-05-12T02:46:32;43977.19;;;-143.84;95.62
6032;BME280;3044;43.232;27.972;2023-05-12T02:49:00;43982.91;;;-143.84;95.79
6032;BME280;3044;43.232;27.972;2023-05-12T02:51:27;43977.19;;;-143.84;95.84
6032;BME280;3044;43.232;27.972;2023-05-12T02:53:55;43971.47;;;-143.84;95.79
6032;BME280;3044;43.232;27.972;2023-05-12T02:56:22;43988.63;;;-143.84;95.98
6032;BME280;3044;43.232;27.972;2023-05-12T02:58:50;43961.97;;;-143.84;95.93
6032;BME280;3044;43.232;27.972;2023-05-12T03:01:18;43988.63;;;-143.84;95.70
6032;BME280;3044;43.232;27.972;2023-05-12T03:03:45;43967.69;;;-143.84;95.70
6032;BME280;3044;43.232;27.972;2023-05-12T03:06:12;43967.69;;;-143.84;95.53
6032;BME280;3044;43.232;27.972;2023-05-12T03:08:39;43961.97;;;-143.84;95.36
6032;BME280;3044;43.232;27.972;2023-05-12T03:11:07;43935.31;;;-143.84;94.87
6032;BME280;3044;43.232;27.972;2023-05-12T03:13:35;43937.22;;;-143.84;94.74
6032;BME280;3044;43.232;27.972;2023-05-12T03:16:02;43935.31;;;-143.84;94.46
6032;BME280;3044;43.232;27.972;2023-05-12T03:18:29;43937.22;;;-143.84;94.58
6032;BME280;3044;43.232;27.972;2023-05-12T03:20:56;43933.41;;;-143.84;94.39
6032;BME280;3044;43.232;27.972;2023-05-12T03:23:23;43914.38;;;-143.84;94.32
6032;BME280;3044;43.232;27.972;2023-05-12T03:25:51;43910.56;;;-143.84;93.75
6032;BME280;3044;43.232;27.972;2023-05-12T03:28:19;43899.16;;;-143.84;93.67
6032;BME280;3044;43.232;27.972;2023-05-12T03:30:47;43876.31;;;-143.84;93.24
6032;BME280;3044;43.232;27.972;2023-05-12T03:33:14;43883.91;;;-143.84;92.80
6032;BME280;3044;43.232;27.972;2023-05-12T03:35:41;43859.19;;;-143.84;92.39
6032;BME280;3044;43.232;27.972;2023-05-12T03:38:08;43866.78;;;-143.84;92.41
6032;BME280;3044;43.232;27.972;2023-05-12T03:40:35;43840.13;;;-143.84;91.65
6032;BME280;3044;43.232;27.972;2023-05-12T03:43:02;43805.88;;;-143.84;90.96
6032;BME280;3044;43.232;27.972;2023-05-12T03:45:31;43887.72;;;-143.84;89.70
6032;BME280;3044;43.232;27.972;2023-05-12T03:47:58;43817.31;;;-143.84;89.64
6032;BME280;3044;43.232;27.972;2023-05-12T03:50:26;43845.84;;;-143.84;89.12
6032;BME280;3044;43.232;27.972;2023-05-12T03:52:53;43908.66;;;-143.84;88.62
6032;BME280;3044;43.232;27.972;2023-05-12T03:55:20;44030.50;;;-143.84;87.67
6032;BME280;3044;43.232;27.972;2023-05-12T03:57:47;44430.28;;;-143.84;86.54
6032;BME280;3044;43.232;27.972;2023-05-12T04:00:15;44487.38;;;-143.84;86.17
6032;BME280;3044;43.232;27.972;2023-05-12T04:02:44;44654.94;;;-143.84;85.46
6032;BME280;3044;43.232;27.972;2023-05-12T04:05:11;44683.50;;;-143.84;85.29
6032;BME280;3044;43.232;27.972;2023-05-12T04:07:38;44814.88;;;-143.84;84.37
6032;BME280;3044;43.232;27.972;2023-05-12T04:10:07;44892.94;;;-143.84;83.72
6032;BME280;3044;43.232;27.972;2023-05-12T04:12:34;44931.00;;;-143.84;83.45
6032;BME280;3044;43.232;27.972;2023-05-12T04:15:01;44900.53;;;-143.84;82.87
6032;BME280;3044;43.232;27.972;2023-05-12T04:17:28;44934.81;;;-143.84;83.04
6032;BME280;3044;43.232;27.972;2023-05-12T04:19:57;44971.00;;;-143.84;82.32
6032;BME280;3044;43.232;27.972;2023-05-12T04:22:24;44980.53;;;-143.84;82.07
6032;BME280;3044;43.232;27.972;2023-05-12T04:24:51;45026.22;;;-143.84;81.63
6032;BME280;3044;43.232;27.972;2023-05-12T04:27:18;45058.59;;;-143.84;80.89
6032;BME280;3044;43.232;27.972;2023-05-12T04:29:45;45033.84;;;-143.84;80.87
6032;BME280;3044;43.232;27.972;2023-05-12T04:32:12;45022.41;;;-143.84;80.63
6032;BME280;3044;43.232;27.972;2023-05-12T04:34:39;45050.97;;;-143.84;80.28
6032;BME280;3044;43.232;27.972;2023-05-12T04:37:08;45058.59;;;-143.84;79.98
6032;BME280;3044;43.232;27.972;2023-05-12T04:39:35;45049.06;;;-143.84;79.80
6032;BME280;3044;43.232;27.972;2023-05-12T04:42:02;45071.91;;;-143.84;79.48
6032;BME280;3044;43.232;27.972;2023-05-12T04:44:30;45092.88;;;-143.84;78.36
6032;BME280;3044;43.232;27.972;2023-05-12T04:46:57;45106.19;;;-143.84;77.82
6032;BME280;3044;43.232;27.972;2023-05-12T04:49:24;45110.00;;;-143.84;76.60
6032;BME280;3044;43.232;27.972;2023-05-12T04:51:51;45130.94;;;-143.84;75.32
6032;BME280;3044;43.232;27.972;2023-05-12T04:54:20;45108.09;;;-143.84;75.55
6032;BME280;3044;43.232;27.972;2023-05-12T04:56:47;45113.81;;;-143.84;74.51
6032;BME280;3044;43.232;27.972;2023-05-12T04:59:14;45127.13;;;-143.84;73.32
6032;BME280;3044;43.232;27.972;2023-05-12T05:01:41;45148.09;;;-143.84;71.43
6032;BME280;3044;43.232;27.972;2023-05-12T05:04:08;45119.53;;;-143.84;69.23
6032;BME280;3044;43.232;27.972;2023-05-12T05:06:35;45106.19;;;-143.84;67.68
6032;BME280;3044;43.232;27.972;2023-05-12T05:09:02;45104.28;;;-143.84;65.99
6032;BME280;3044;43.232;27.972;2023-05-12T05:11:31;45136.66;;;-143.84;63.74
6032;BME280;3044;43.232;27.972;2023-05-12T05:13:58;45108.09;;;-143.84;62.63
6032;BME280;3044;43.232;27.972;2023-05-12T05:16:25;45144.28;;;-143.84;61.20
6032;BME280;3044;43.232;27.972;2023-05-12T05:18:53;45130.94;;;-143.84;57.67
6032;BME280;3044;43.232;27.972;2023-05-12T05:21:20;45119.53;;;-143.84;57.65
6032;BME280;3044;43.232;27.972;2023-05-12T05:23:47;45108.09;;;-143.84;58.12
6032;BME280;3044;43.232;27.972;2023-05-12T05:26:14;45104.28;;;-143.84;56.68
6032;BME280;3044;43.232;27.972;2023-05-12T05:28:43;45130.94;;;-143.84;56.46
6032;BME280;3044;43.232;27.972;2023-05-12T05:31:16;45136.66;;;-143.84;56.71
6032;BME280;3044;43.232;27.972;2023-05-12T05:33:44;45094.78;;;-143.84;55.51
6032;BME280;3044;43.232;27.972;2023-05-12T05:36:11;45098.56;;;-143.84;55.08
6032;BME280;3044;43.232;27.972;2023-05-12T05:38:38;45123.34;;;-143.84;54.30
6032;BME280;3044;43.232;27.972;2023-05-12T05:41:05;45108.09;;;-143.84;55.22
6032;BME280;3044;43.232;27.972;2023-05-12T05:43:32;45123.34;;;-143.84;55.35
6032;BME280;3044;43.232;27.972;2023-05-12T05:46:01;45113.81;;;-143.84;53.28
6032;BME280;3044;43.232;27.972;2023-05-12T05:48:28;45119.53;;;-143.84;54.88
6032;BME280;3044;43.232;27.972;2023-05-12T05:50:55;45134.75;;;-143.84;54.13
6032;BME280;3044;43.232;27.972;2023-05-12T05:53:22;45106.19;;;-143.84;51.95
6032;BME280;3044;43.232;27.972;2023-05-12T05:55:49;45113.81;;;-143.84;52.21
6032;BME280;3044;43.232;27.972;2023-05-12T05:58:17;45127.13;;;-143.84;52.42
6032;BME280;3044;43.232;27.972;2023-05-12T06:00:44;45087.16;;;-143.84;50.49
6032;BME280;3044;43.232;27.972;2023-05-12T06:03:12;45104.28;;;-143.84;50.30
6032;BME280;3044;43.232;27.972;2023-05-12T06:05:40;45125.22;;;-143.84;50.18
6032;BME280;3044;43.232;27.972;2023-05-12T06:08:07;45121.44;;;-143.84;49.98
6032;BME280;3044;43.232;27.972;2023-05-12T06:10:37;45129.03;;;-143.84;49.64
6032;BME280;3044;43.232;27.972;2023-05-12T06:13:05;45104.28;;;-143.84;48.76
6032;BME280;3044;43.232;27.972;2023-05-12T06:15:32;45106.19;;;-143.84;49.34
6032;BME280;3044;43.232;27.972;2023-05-12T06:17:59;45106.19;;;-143.84;49.57
6032;BME280;3044;43.232;27.972;2023-05-12T06:20:28;45085.25;;;-143.84;49.72
6032;BME280;3044;43.232;27.972;2023-05-12T06:22:55;45106.19;;;-143.84;49.64
6032;BME280;3044;43.232;27.972;2023-05-12T06:25:22;45102.38;;;-143.84;49.93
6032;BME280;3044;43.232;27.972;2023-05-12T06:27:49;45096.66;;;-143.84;50.61
6032;BME280;3044;43.232;27.972;2023-05-12T06:30:17;45089.06;;;-143.84;49.69
6032;BME280;3044;43.232;27.972;2023-05-12T06:32:44;45106.19;;;-143.84;48.70
6032;BME280;3044;43.232;27.972;2023-05-12T06:35:12;45087.16;;;-143.84;48.79
6032;BME280;3044;43.232;27.972;2023-05-12T06:37:40;45115.72;;;-143.84;48.85
6032;BME280;3044;43.232;27.972;2023-05-12T06:40:09;45127.13;;;-143.84;48.45
6032;BME280;3044;43.232;27.972;2023-05-12T06:42:36;45104.28;;;-143.84;48.28
6032;BME280;3044;43.232;27.972;2023-05-12T06:45:04;45132.84;;;-143.84;47.47
6032;BME280;3044;43.232;27.972;2023-05-12T06:47:32;45119.53;;;-143.84;48.31
6032;BME280;3044;43.232;27.972;2023-05-12T06:49:59;45073.81;;;-143.84;48.96
6032;BME280;3044;43.232;27.972;2023-05-12T06:52:26;45100.47;;;-143.84;47.73
6032;BME280;3044;43.232;27.972;2023-05-12T06:54:55;45083.34;;;-143.84;47.18
6032;BME280;3044;43.232;27.972;2023-05-12T06:57:22;45085.25;;;-143.84;47.27
6032;BME280;3044;43.232;27.972;2023-05-12T06:59:49;45102.38;;;-143.84;45.97
6032;BME280;3044;43.232;27.972;2023-05-12T07:02:16;45094.78;;;-143.84;45.91
6032;BME280;3044;43.232;27.972;2023-05-12T07:04:43;45098.56;;;-143.84;47.27
6032;BME280;3044;43.232;27.972;2023-05-12T07:07:10;45094.78;;;-143.84;46.95
6032;BME280;3044;43.232;27.972;2023-05-12T07:09:37;45083.34;;;-143.84;47.46
6032;BME280;3044;43.232;27.972;2023-05-12T07:12:08;45087.16;;;-143.84;46.96
6032;BME280;3044;43.232;27.972;2023-05-12T07:14:35;45081.44;;;-143.84;46.30
6032;BME280;3044;43.232;27.972;2023-05-12T07:17:02;45119.53;;;-143.84;46.71
6032;BME280;3044;43.232;27.972;2023-05-12T07:19:30;45098.56;;;-143.84;46.36
6032;BME280;3044;43.232;27.972;2023-05-12T07:21:57;45108.09;;;-143.84;46.01
6032;BME280;3044;43.232;27.972;2023-05-12T07:24:24;45090.97;;;-143.84;45.24
6032;BME280;3044;43.232;27.972;2023-05-12T07:26:52;45073.81;;;-143.84;44.81
6032;BME280;3044;43.232;27.972;2023-05-12T07:29:20;45081.44;;;-143.84;44.97
6032;BME280;3044;43.232;27.972;2023-05-12T07:31:48;45056.69;;;-143.84;43.54
6032;BME280;3044;43.232;27.972;2023-05-12T07:34:15;45102.38;;;-143.84;44.38
6032;BME280;3044;43.232;27.972;2023-05-12T07:36:42;45104.28;;;-143.84;43.13
6032;BME280;3044;43.232;27.972;2023-05-12T07:39:09;45068.13;;;-143.84;43.22
6032;BME280;3044;43.232;27.972;2023-05-12T07:41:39;45081.44;;;-143.84;43.42
6032;BME280;3044;43.232;27.972;2023-05-12T07:44:06;45068.13;;;-143.84;42.63
6032;BME280;3044;43.232;27.972;2023-05-12T07:46:35;45054.78;;;-143.84;42.88
6032;BME280;3044;43.232;27.972;2023-05-12T07:49:02;45070.00;;;-143.84;41.95
6032;BME280;3044;43.232;27.972;2023-05-12T07:51:29;45070.00;;;-143.84;42.36
6032;BME280;3044;43.232;27.972;2023-05-12T07:53:56;45083.34;;;-143.84;42.08
6032;BME280;3044;43.232;27.972;2023-05-12T07:56:23;45047.16;;;-143.84;42.21
6032;BME280;3044;43.232;27.972;2023-05-12T07:58:50;45068.13;;;-143.84;41.94
6032;BME280;3044;43.232;27.972;2023-05-12T08:01:18;45083.34;;;-143.84;41.28
6032;BME280;3044;43.232;27.972;2023-05-12T08:03:46;45043.34;;;-143.84;41.42
6032;BME280;3044;43.232;27.972;2023-05-12T08:06:15;45068.13;;;-143.84;41.25
6032;BME280;3044;43.232;27.972;2023-05-12T08:08:42;45081.44;;;-143.84;40.39
6032;BME280;3044;43.232;27.972;2023-05-12T08:11:10;45077.63;;;-143.84;40.00
6032;BME280;3044;43.232;27.972;2023-05-12T08:13:37;45054.78;;;-143.84;40.52
6032;BME280;3044;43.232;27.972;2023-05-12T08:16:04;45064.31;;;-143.84;40.60
6032;BME280;3044;43.232;27.972;2023-05-12T08:18:32;45064.31;;;-143.84;40.69
6032;BME280;3044;43.232;27.972;2023-05-12T08:21:00;45068.13;;;-143.84;41.04
6032;BME280;3044;43.232;27.972;2023-05-12T08:23:27;45077.63;;;-143.84;40.91
6032;BME280;3044;43.232;27.972;2023-05-12T08:25:54;45094.78;;;-143.84;42.00
6032;BME280;3044;43.232;27.972;2023-05-12T08:28:21;45054.78;;;-143.84;41.86
6032;BME280;3044;43.232;27.972;2023-05-12T08:30:48;45075.72;;;-143.84;41.87
6032;BME280;3044;43.232;27.972;2023-05-12T08:33:16;45043.34;;;-143.84;41.54
6032;BME280;3044;43.232;27.972;2023-05-12T08:35:43;45068.13;;;-143.84;41.97
6032;BME280;3044;43.232;27.972;2023-05-12T08:38:11;45043.34;;;-143.84;42.62
6032;BME280;3044;43.232;27.972;2023-05-12T08:40:44;45077.63;;;-143.84;43.99
6032;BME280;3044;43.232;27.972;2023-05-12T08:43:21;45073.81;;;-143.84;44.36
6032;BME280;3044;43.232;27.972;2023-05-12T08:45:52;45054.78;;;-143.84;45.41
6032;BME280;3044;43.232;27.972;2023-05-12T08:48:26;45037.66;;;-143.84;46.04
6032;BME280;3044;43.232;27.972;2023-05-12T08:50:56;45052.88;;;-143.84;46.06
6032;BME280;3044;43.232;27.972;2023-05-12T08:53:28;45071.91;;;-143.84;45.46
6032;BME280;3044;43.232;27.972;2023-05-12T08:55:57;45068.13;;;-143.84;45.07
6032;BME280;3044;43.232;27.972;2023-05-12T08:58:26;45056.69;;;-143.84;44.95
6032;BME280;3044;43.232;27.972;2023-05-12T09:00:54;45054.78;;;-143.84;43.50
6032;BME280;3044;43.232;27.972;2023-05-12T09:03:22;45062.41;;;-143.84;43.56
6032;BME280;3044;43.232;27.972;2023-05-12T09:05:49;45056.69;;;-143.84;44.19
6032;BME280;3044;43.232;27.972;2023-05-12T09:08:17;45035.75;;;-143.84;43.73
6032;BME280;3044;43.232;27.972;2023-05-12T09:10:48;45050.97;;;-143.84;45.66
6032;BME280;3044;43.232;27.972;2023-05-12T09:13:21;45075.72;;;-143.84;46.29
6032;BME280;3044;43.232;27.972;2023-05-12T09:15:52;45062.41;;;-143.84;44.87
6032;BME280;3044;43.232;27.972;2023-05-12T09:18:21;45073.81;;;-143.84;44.92
6032;BME280;3044;43.232;27.972;2023-05-12T09:20:48;45079.53;;;-143.84;44.26
6032;BME280;3044;43.232;27.972;2023-05-12T09:23:28;45049.06;;;-143.84;45.00
6032;BME280;3044;43.232;27.972;2023-05-12T09:26:04;45058.59;;;-143.84;43.68
6032;BME280;3044;43.232;27.972;2023-05-12T09:28:35;45056.69;;;-143.84;44.13
6032;BME280;3044;43.232;27.972;2023-05-12T09:31:14;45125.22;;;-143.84;43.84
6032;BME280;3044;43.232;27.972;2023-05-12T09:33:48;45071.91;;;-143.84;42.27
6032;BME280;3044;43.232;27.972;2023-05-12T09:36:27;45052.88;;;-143.84;42.09
6032;BME280;3044;43.232;27.972;2023-05-12T09:39:01;45064.31;;;-143.84;42.04
6032;BME280;3044;43.232;27.972;2023-05-12T09:41:33;45068.13;;;-143.84;41.38
6032;BME280;3044;43.232;27.972;2023-05-12T09:44:00;45071.91;;;-143.84;41.53
6032;BME280;3044;43.232;27.972;2023-05-12T09:46:28;45075.72;;;-143.84;41.94
6032;BME280;3044;43.232;27.972;2023-05-12T09:48:56;45079.53;;;-143.84;40.16
6032;BME280;3044;43.232;27.972;2023-05-12T09:51:23;45071.91;;;-143.84;41.49
6032;BME280;3044;43.232;27.972;2023-05-12T09:53:51;45083.34;;;-143.84;43.10
6032;BME280;3044;43.232;27.972;2023-05-12T09:56:18;45064.31;;;-143.84;42.94
6032;BME280;3044;43.232;27.972;2023-05-12T09:58:48;45075.72;;;-143.84;43.48
6032;BME280;3044;43.232;27.972;2023-05-12T10:01:16;45077.63;;;-143.84;44.19
6032;BME280;3044;43.232;27.972;2023-05-12T10:03:45;45050.97;;;-143.84;45.72
6032;BME280;3044;43.232;27.972;2023-05-12T10:06:14;45115.72;;;-143.84;45.33
6032;BME280;3044;43.232;27.972;2023-05-12T10:08:43;45071.91;;;-143.84;43.99
6032;BME280;3044;43.232;27.972;2023-05-12T10:11:13;45068.13;;;-143.84;42.83
6032;BME280;3044;43.232;27.972;2023-05-12T10:13:41;45066.22;;;-143.84;43.79
6032;BME280;3044;43.232;27.972;2023-05-12T10:16:11;45077.63;;;-143.84;44.70
6032;BME280;3044;43.232;27.972;2023-05-12T10:18:40;45094.78;;;-143.84;44.60
6032;BME280;3044;43.232;27.972;2023-05-12T10:21:09;45098.56;;;-143.84;43.97
6032;BME280;3044;43.232;27.972;2023-05-12T10:23:39;45100.47;;;-143.84;43.64
6032;BME280;3044;43.232;27.972;2023-05-12T10:26:08;45079.53;;;-143.84;43.20
6032;BME280;3044;43.232;27.972;2023-05-12T10:28:36;45087.16;;;-143.84;43.06
6032;BME280;3044;43.232;27.972;2023-05-12T10:31:04;45090.97;;;-143.84;43.13
6032;BME280;3044;43.232;27.972;2023-05-12T10:33:33;45100.47;;;-143.84;42.05
6032;BME280;3044;43.232;27.972;2023-05-12T10:36:00;45081.44;;;-143.84;42.42
6032;BME280;3044;43.232;27.972;2023-05-12T10:38:35;45098.56;;;-143.84;42.45
6032;BME280;3044;43.232;27.972;2023-05-12T10:41:04;45085.25;;;-143.84;43.09
6032;BME280;3044;43.232;27.972;2023-05-12T10:43:38;45094.78;;;-143.84;42.19
6032;BME280;3044;43.232;27.972;2023-05-12T10:46:15;45073.81;;;-143.84;41.53
6032;BME280;3044;43.232;27.972;2023-05-12T10:48:52;45117.63;;;-143.84;41.52
6032;BME280;3044;43.232;27.972;2023-05-12T10:51:21;45115.72;;;-143.84;40.65
6032;BME280;3044;43.232;27.972;2023-05-12T10:53:53;45092.88;;;-143.84;40.19
6032;BME280;3044;43.232;27.972;2023-05-12T10:56:26;45062.41;;;-143.84;39.98
6032;BME280;3044;43.232;27.972;2023-05-12T10:59:21;45083.34;;;-143.84;40.69
6032;BME280;3044;43.232;27.972;2023-05-12T11:01:59;45090.97;;;-143.84;40.27
6032;BME280;3044;43.232;27.972;2023-05-12T11:04:39;45075.72;;;-143.84;37.98
6032;BME280;3044;43.232;27.972;2023-05-12T11:07:09;45081.44;;;-143.84;38.12
6032;BME280;3044;43.232;27.972;2023-05-12T11:09:38;45089.06;;;-143.84;38.28
6032;BME280;3044;43.232;27.972;2023-05-12T11:12:07;45075.72;;;-143.84;38.86
6032;BME280;3044;43.232;27.972;2023-05-12T11:14:34;45062.41;;;-143.84;38.83
6032;BME280;3044;43.232;27.972;2023-05-12T11:17:02;45094.78;;;-143.84;39.79
6032;BME280;3044;43.232;27.972;2023-05-12T11:19:29;45073.81;;;-143.84;40.83
6032;BME280;3044;43.232;27.972;2023-05-12T11:22:03;45106.19;;;-143.84;41.00
6032;BME280;3044;43.232;27.972;2023-05-12T11:24:31;45089.06;;;-143.84;42.22
6032;BME280;3044;43.232;27.972;2023-05-12T11:26:58;45096.66;;;-143.84;42.73
6032;BME280;3044;43.232;27.972;2023-05-12T11:29:25;45075.72;;;-143.84;42.11
6032;BME280;3044;43.232;27.972;2023-05-12T11:31:52;45106.19;;;-143.84;42.48
6032;BME280;3044;43.232;27.972;2023-05-12T11:34:20;45083.34;;;-143.84;41.43
6032;BME280;3044;43.232;27.972;2023-05-12T11:36:49;45087.16;;;-143.84;40.47
6032;BME280;3044;43.232;27.972;2023-05-12T11:39:19;45066.22;;;-143.84;40.22
6032;BME280;3044;43.232;27.972;2023-05-12T11:41:47;45121.44;;;-143.84;39.86
6032;BME280;3044;43.232;27.972;2023-05-12T11:44:15;45090.97;;;-143.84;40.85
6032;BME280;3044;43.232;27.972;2023-05-12T11:46:54;45096.66;;;-143.84;40.80
6032;BME280;3044;43.232;27.972;2023-05-12T11:49:21;45085.25;;;-143.84;41.77
6032;BME280;3044;43.232;27.972;2023-05-12T11:51:51;45070.00;;;-143.84;41.91
6032;BME280;3044;43.232;27.972;2023-05-12T11:54:20;45070.00;;;-143.84;40.43
6032;BME280;3044;43.232;27.972;2023-05-12T11:56:49;45090.97;;;-143.84;39.40
6032;BME280;3044;43.232;27.972;2023-05-12T11:59:27;45098.56;;;-143.84;39.31
6032;BME280;3044;43.232;27.972;2023-05-12T12:01:54;45079.53;;;-143.84;38.14
6032;BME280;3044;43.232;27.972;2023-05-12T12:04:35;45085.25;;;-143.84;38.09
6032;BME280;3044;43.232;27.972;2023-05-12T12:07:02;45087.16;;;-143.84;38.07
6032;BME280;3044;43.232;27.972;2023-05-12T12:09:32;45113.81;;;-143.84;38.15
6032;BME280;3044;43.232;27.972;2023-05-12T12:12:00;45081.44;;;-143.84;38.25
6032;BME280;3044;43.232;27.972;2023-05-12T12:14:29;45094.78;;;-143.84;39.16
6032;BME280;3044;43.232;27.972;2023-05-12T12:16:57;45081.44;;;-143.84;39.45
6032;BME280;3044;43.232;27.972;2023-05-12T12:19:24;45070.00;;;-143.84;39.99
6032;BME280;3044;43.232;27.972;2023-05-12T12:21:52;45085.25;;;-143.84;38.94
6032;BME280;3044;43.232;27.972;2023-05-12T12:24:20;45077.63;;;-143.84;38.90
6032;BME280;3044;43.232;27.972;2023-05-12T12:26:48;45062.41;;;-143.84;39.04
6032;BME280;3044;43.232;27.972;2023-05-12T12:29:16;45073.81;;;-143.84;38.33
6032;BME280;3044;43.232;27.972;2023-05-12T12:31:43;45089.06;;;-143.84;38.50
6032;BME280;3044;43.232;27.972;2023-05-12T12:34:10;45092.88;;;-143.84;38.63
6032;BME280;3044;43.232;27.972;2023-05-12T12:36:37;45089.06;;;-143.84;38.89
6032;BME280;3044;43.232;27.972;2023-05-12T12:39:05;45083.34;;;-143.84;38.17
6032;BME280;3044;43.232;27.972;2023-05-12T12:41:32;45100.47;;;-143.84;37.64
6032;BME280;3044;43.232;27.972;2023-05-12T12:44:01;45071.91;;;-143.84;38.48
6032;BME280;3044;43.232;27.972;2023-05-12T12:46:28;45094.78;;;-143.84;38.18
6032;BME280;3044;43.232;27.972;2023-05-12T12:48:55;45079.53;;;-143.84;38.78
6032;BME280;3044;43.232;27.972;2023-05-12T12:51:26;45100.47;;;-143.84;38.73
6032;BME280;3044;43.232;27.972;2023-05-12T12:53:55;45071.91;;;-143.84;37.64
6032;BME280;3044;43.232;27.972;2023-05-12T12:56:22;45089.06;;;-143.84;36.36